tititudorancea.com
Station Historical Data
Daily Summary for March 15, 2019 Units:  Both    English   Metric
« Previous Day
Next Day »
Daily Weekly Monthly Yearly Custom
  High: Low: Average:
Temperature: TemperatureF °F /  -17.8 °C 49.0 °F /  9.4 °C 51.1 °F /  10.6 °C
Dew Point: DewpointF °F /  -17.8 °C 45.6 °F /  7.6 °C 46.6 °F /  8.1 °C
Humidity: Humidity % 59 % 84 %
Wind Speed: WindSpeedMPH mph /  0 km/h - 7.3 mph /  11.7 km/h
Wind Gust: WindSpeedGustMPH mph /  0 km/h - -
Wind:- - SSW
Pressure: PressureIn in /  0 hPa 30.00 in /  1015.8 hPa -
Precipitation: 0.00 in /  0 mm    
Historical Graphs
 
 
Ararat weather Find more about Weather in Ararat, AU


 



 


Tabular Data for March 15, 2019
Time Temperature Dew Point Pressure Wind Wind Speed Wind Gust Humidity Rainfall Rate (Hourly)
TemperatureF °F /  -17.8 °C DewpointF °F /  -17.8 °C PressureIn in /  0 hPa Calm     Humidity % HourlyPrecipIn in /  0 mm
00:04 52.2 °F /  11.2 °C 46.5 °F /  8.1 °C 30.03 in /  1016.8 hPa South 8.1 mph /  13 km/h 5.8 mph /  9.3 km/h 81 % 0.00 in /  0 mm
00:09 52.1 °F /  11.2 °C 46.4 °F /  8 °C 30.03 in /  1016.8 hPa South 7.0 mph /  11.3 km/h 4.4 mph /  7.1 km/h 81 % 0.00 in /  0 mm
00:14 52.0 °F /  11.1 °C 46.3 °F /  7.9 °C 30.03 in /  1016.8 hPa South 10.4 mph /  16.7 km/h 6.1 mph /  9.8 km/h 81 % 0.00 in /  0 mm
00:19 52.0 °F /  11.1 °C 46.3 °F /  7.9 °C 30.03 in /  1016.8 hPa South 6.9 mph /  11.1 km/h 3.7 mph /  6 km/h 81 % 0.00 in /  0 mm
00:24 52.0 °F /  11.1 °C 46.3 °F /  7.9 °C 30.03 in /  1016.8 hPa South 10.4 mph /  16.7 km/h 4.8 mph /  7.7 km/h 81 % 0.00 in /  0 mm
00:29 51.8 °F /  11 °C 46.5 °F /  8.1 °C 30.03 in /  1016.8 hPa South 9.2 mph /  14.8 km/h 3.8 mph /  6.1 km/h 82 % 0.00 in /  0 mm
00:34 51.8 °F /  11 °C 46.5 °F /  8.1 °C 30.03 in /  1016.8 hPa South 8.1 mph /  13 km/h 4.0 mph /  6.4 km/h 82 % 0.00 in /  0 mm
00:39 51.7 °F /  10.9 °C 46.4 °F /  8 °C 30.03 in /  1016.8 hPa South 5.8 mph /  9.3 km/h 4.7 mph /  7.6 km/h 82 % 0.00 in /  0 mm
00:44 51.7 °F /  10.9 °C 46.4 °F /  8 °C 30.03 in /  1016.8 hPa South 5.8 mph /  9.3 km/h 4.1 mph /  6.6 km/h 82 % 0.00 in /  0 mm
00:49 51.6 °F /  10.9 °C 46.3 °F /  7.9 °C 30.03 in /  1016.8 hPa South 6.9 mph /  11.1 km/h 3.7 mph /  6 km/h 82 % 0.00 in /  0 mm
00:54 51.5 °F /  10.8 °C 46.2 °F /  7.9 °C 30.03 in /  1016.8 hPa South 4.6 mph /  7.4 km/h 3.8 mph /  6.1 km/h 82 % 0.00 in /  0 mm
00:59 51.4 °F /  10.8 °C 46.1 °F /  7.8 °C 30.03 in /  1016.8 hPa North 5.8 mph /  9.3 km/h 3.9 mph /  6.3 km/h 82 % 0.00 in /  0 mm
01:04 51.3 °F /  10.7 °C 46.3 °F /  7.9 °C 30.03 in /  1016.8 hPa South 8.1 mph /  13 km/h 2.9 mph /  4.7 km/h 83 % 0.00 in /  0 mm
01:09 51.2 °F /  10.7 °C 46.2 °F /  7.9 °C 30.03 in /  1016.8 hPa South 4.6 mph /  7.4 km/h 3.2 mph /  5.1 km/h 83 % 0.00 in /  0 mm
01:14 51.1 °F /  10.6 °C 46.1 °F /  7.8 °C 30.03 in /  1016.8 hPa South 5.8 mph /  9.3 km/h 3.5 mph /  5.6 km/h 83 % 0.00 in /  0 mm
01:19 51.0 °F /  10.6 °C 46.0 °F /  7.8 °C 30.03 in /  1016.8 hPa South 4.6 mph /  7.4 km/h 2.3 mph /  3.7 km/h 83 % 0.00 in /  0 mm
01:24 50.9 °F /  10.5 °C 46.2 °F /  7.9 °C 30.03 in /  1016.8 hPa South 8.1 mph /  13 km/h 5.6 mph /  9 km/h 84 % 0.00 in /  0 mm
01:29 50.9 °F /  10.5 °C 46.2 °F /  7.9 °C 30.02 in /  1016.5 hPa South 6.9 mph /  11.1 km/h 5.2 mph /  8.4 km/h 84 % 0.00 in /  0 mm
01:34 50.9 °F /  10.5 °C 46.2 °F /  7.9 °C 30.02 in /  1016.5 hPa North 8.1 mph /  13 km/h 5.9 mph /  9.5 km/h 84 % 0.00 in /  0 mm
01:39 50.8 °F /  10.4 °C 46.1 °F /  7.8 °C 30.02 in /  1016.5 hPa South 5.8 mph /  9.3 km/h 3.6 mph /  5.8 km/h 84 % 0.00 in /  0 mm
01:44 50.8 °F /  10.4 °C 46.1 °F /  7.8 °C 30.02 in /  1016.5 hPa South 8.1 mph /  13 km/h 3.7 mph /  6 km/h 84 % 0.00 in /  0 mm
01:49 50.7 °F /  10.4 °C 46.0 °F /  7.8 °C 30.02 in /  1016.5 hPa South 4.0 mph /  6.4 km/h 2.6 mph /  4.2 km/h 84 % 0.00 in /  0 mm
01:54 50.6 °F /  10.3 °C 45.9 °F /  7.7 °C 30.02 in /  1016.5 hPa South 3.5 mph /  5.6 km/h 3.7 mph /  6 km/h 84 % 0.00 in /  0 mm
01:59 50.5 °F /  10.3 °C 46.2 °F /  7.9 °C 30.02 in /  1016.5 hPa South 6.9 mph /  11.1 km/h 4.3 mph /  6.9 km/h 85 % 0.00 in /  0 mm
02:04 50.5 °F /  10.3 °C 46.2 °F /  7.9 °C 30.02 in /  1016.5 hPa South 4.6 mph /  7.4 km/h 3.8 mph /  6.1 km/h 85 % 0.00 in /  0 mm
02:09 50.5 °F /  10.3 °C 46.2 °F /  7.9 °C 30.02 in /  1016.5 hPa South 5.8 mph /  9.3 km/h 4.6 mph /  7.4 km/h 85 % 0.00 in /  0 mm
02:14 50.5 °F /  10.3 °C 46.2 °F /  7.9 °C 30.02 in /  1016.5 hPa South 8.1 mph /  13 km/h 5.0 mph /  8 km/h 85 % 0.00 in /  0 mm
02:19 50.4 °F /  10.2 °C 46.4 °F /  8 °C 30.02 in /  1016.5 hPa South 5.8 mph /  9.3 km/h 3.1 mph /  5 km/h 86 % 0.00 in /  0 mm
02:24 50.3 °F /  10.2 °C 46.3 °F /  7.9 °C 30.02 in /  1016.5 hPa South 6.9 mph /  11.1 km/h 3.4 mph /  5.5 km/h 86 % 0.00 in /  0 mm
02:29 50.2 °F /  10.1 °C 46.2 °F /  7.9 °C 30.02 in /  1016.5 hPa South 5.8 mph /  9.3 km/h 3.5 mph /  5.6 km/h 86 % 0.00 in /  0 mm
02:34 50.2 °F /  10.1 °C 46.2 °F /  7.9 °C 30.02 in /  1016.5 hPa South 3.5 mph /  5.6 km/h 2.3 mph /  3.7 km/h 86 % 0.00 in /  0 mm
02:39 50.2 °F /  10.1 °C 46.5 °F /  8.1 °C 30.02 in /  1016.5 hPa South 6.9 mph /  11.1 km/h 3.2 mph /  5.1 km/h 87 % 0.00 in /  0 mm
02:44 50.2 °F /  10.1 °C 46.5 °F /  8.1 °C 30.02 in /  1016.5 hPa South 3.5 mph /  5.6 km/h 2.5 mph /  4 km/h 87 % 0.00 in /  0 mm
02:49 50.0 °F /  10 °C 46.0 °F /  7.8 °C 30.02 in /  1016.5 hPa South 4.6 mph /  7.4 km/h 1.8 mph /  2.9 km/h 86 % 0.00 in /  0 mm
02:54 49.9 °F /  9.9 °C 45.9 °F /  7.7 °C 30.02 in /  1016.5 hPa North 5.8 mph /  9.3 km/h 3.8 mph /  6.1 km/h 86 % 0.00 in /  0 mm
02:59 49.8 °F /  9.9 °C 46.1 °F /  7.8 °C 30.02 in /  1016.5 hPa South 4.6 mph /  7.4 km/h 2.8 mph /  4.5 km/h 87 % 0.00 in /  0 mm
03:04 49.6 °F /  9.8 °C 45.9 °F /  7.7 °C 30.02 in /  1016.5 hPa South 5.8 mph /  9.3 km/h 3.9 mph /  6.3 km/h 87 % 0.00 in /  0 mm
03:09 49.4 °F /  9.7 °C 45.7 °F /  7.6 °C 30.02 in /  1016.5 hPa South 4.0 mph /  6.4 km/h 3.3 mph /  5.3 km/h 87 % 0.00 in /  0 mm
03:14 49.3 °F /  9.6 °C 45.6 °F /  7.6 °C 30.01 in /  1016.1 hPa North 5.8 mph /  9.3 km/h 4.2 mph /  6.8 km/h 87 % 0.00 in /  0 mm
03:19 49.3 °F /  9.6 °C 45.9 °F /  7.7 °C 30.02 in /  1016.5 hPa South 6.9 mph /  11.1 km/h 4.5 mph /  7.2 km/h 88 % 0.00 in /  0 mm
03:23 49.2 °F /  9.6 °C 45.8 °F /  7.7 °C 30.01 in /  1016.1 hPa South 3.5 mph /  5.6 km/h 2.5 mph /  4 km/h 88 % 0.00 in /  0 mm
03:29 49.1 °F /  9.5 °C 45.7 °F /  7.6 °C 30.01 in /  1016.1 hPa North 4.6 mph /  7.4 km/h 2.7 mph /  4.3 km/h 88 % 0.00 in /  0 mm
03:34 49.1 °F /  9.5 °C 45.7 °F /  7.6 °C 30.01 in /  1016.1 hPa South 6.9 mph /  11.1 km/h 4.5 mph /  7.2 km/h 88 % 0.00 in /  0 mm
03:39 49.0 °F /  9.4 °C 45.6 °F /  7.6 °C 30.01 in /  1016.1 hPa North 8.1 mph /  13 km/h 4.6 mph /  7.4 km/h 88 % 0.00 in /  0 mm
03:44 49.1 °F /  9.5 °C 46.0 °F /  7.8 °C 30.01 in /  1016.1 hPa South 4.6 mph /  7.4 km/h 1.7 mph /  2.7 km/h 89 % 0.00 in /  0 mm
03:49 49.1 °F /  9.5 °C 46.0 °F /  7.8 °C 30.01 in /  1016.1 hPa South 4.6 mph /  7.4 km/h 4.1 mph /  6.6 km/h 89 % 0.00 in /  0 mm
03:54 49.2 °F /  9.6 °C 46.1 °F /  7.8 °C 30.00 in /  1015.8 hPa South 5.8 mph /  9.3 km/h 3.3 mph /  5.3 km/h 89 % 0.00 in /  0 mm
03:59 49.3 °F /  9.6 °C 46.2 °F /  7.9 °C 30.01 in /  1016.1 hPa South 5.0 mph /  8 km/h 3.8 mph /  6.1 km/h 89 % 0.00 in /  0 mm
04:04 49.5 °F /  9.7 °C 46.4 °F /  8 °C 30.01 in /  1016.1 hPa South 6.9 mph /  11.1 km/h 3.4 mph /  5.5 km/h 89 % 0.00 in /  0 mm
04:09 49.6 °F /  9.8 °C 46.5 °F /  8.1 °C 30.01 in /  1016.1 hPa North 6.9 mph /  11.1 km/h 4.3 mph /  6.9 km/h 89 % 0.00 in /  0 mm
04:14 49.9 °F /  9.9 °C 46.8 °F /  8.2 °C 30.01 in /  1016.1 hPa South 8.1 mph /  13 km/h 4.7 mph /  7.6 km/h 89 % 0.00 in /  0 mm
04:19 50.0 °F /  10 °C 46.9 °F /  8.3 °C 30.01 in /  1016.1 hPa South 9.0 mph /  14.5 km/h 5.1 mph /  8.2 km/h 89 % 0.00 in /  0 mm
04:24 50.0 °F /  10 °C 46.9 °F /  8.3 °C 30.01 in /  1016.1 hPa South 6.9 mph /  11.1 km/h 3.1 mph /  5 km/h 89 % 0.00 in /  0 mm
04:29 50.1 °F /  10.1 °C 47.0 °F /  8.3 °C 30.01 in /  1016.1 hPa South 6.0 mph /  9.7 km/h 4.4 mph /  7.1 km/h 89 % 0.00 in /  0 mm
04:34 50.2 °F /  10.1 °C 47.1 °F /  8.4 °C 30.01 in /  1016.1 hPa South 5.8 mph /  9.3 km/h 4.7 mph /  7.6 km/h 89 % 0.00 in /  0 mm
04:39 50.2 °F /  10.1 °C 46.8 °F /  8.2 °C 30.01 in /  1016.1 hPa North 8.1 mph /  13 km/h 5.9 mph /  9.5 km/h 88 % 0.00 in /  0 mm
04:44 50.2 °F /  10.1 °C 46.8 °F /  8.2 °C 30.01 in /  1016.1 hPa South 8.0 mph /  12.9 km/h 5.2 mph /  8.4 km/h 88 % 0.00 in /  0 mm
04:49 50.1 °F /  10.1 °C 46.7 °F /  8.2 °C 30.01 in /  1016.1 hPa South 6.9 mph /  11.1 km/h 4.4 mph /  7.1 km/h 88 % 0.00 in /  0 mm
04:54 50.1 °F /  10.1 °C 46.7 °F /  8.2 °C 30.01 in /  1016.1 hPa South 6.9 mph /  11.1 km/h 5.7 mph /  9.2 km/h 88 % 0.00 in /  0 mm
04:59 50.0 °F /  10 °C 46.6 °F /  8.1 °C 30.01 in /  1016.1 hPa South 6.9 mph /  11.1 km/h 5.0 mph /  8 km/h 88 % 0.00 in /  0 mm
05:04 49.9 °F /  9.9 °C 46.5 °F /  8.1 °C 30.01 in /  1016.1 hPa South 4.6 mph /  7.4 km/h 1.7 mph /  2.7 km/h 88 % 0.00 in /  0 mm
05:09 49.7 °F /  9.8 °C 46.3 °F /  7.9 °C 30.01 in /  1016.1 hPa South 5.8 mph /  9.3 km/h 1.8 mph /  2.9 km/h 88 % 0.00 in /  0 mm
05:14 49.6 °F /  9.8 °C 46.2 °F /  7.9 °C 30.01 in /  1016.1 hPa North 5.8 mph /  9.3 km/h 2.9 mph /  4.7 km/h 88 % 0.00 in /  0 mm
05:19 49.5 °F /  9.7 °C 46.1 °F /  7.8 °C 30.01 in /  1016.1 hPa North 4.6 mph /  7.4 km/h 3.6 mph /  5.8 km/h 88 % 0.00 in /  0 mm
05:24 49.4 °F /  9.7 °C 46.3 °F /  7.9 °C 30.01 in /  1016.1 hPa South 8.0 mph /  12.9 km/h 4.1 mph /  6.6 km/h 89 % 0.00 in /  0 mm
05:29 49.5 °F /  9.7 °C 46.4 °F /  8 °C 30.01 in /  1016.1 hPa South 8.0 mph /  12.9 km/h 5.2 mph /  8.4 km/h 89 % 0.00 in /  0 mm
05:34 49.4 °F /  9.7 °C 46.3 °F /  7.9 °C 30.02 in /  1016.5 hPa North 4.6 mph /  7.4 km/h 4.3 mph /  6.9 km/h 89 % 0.00 in /  0 mm
05:39 49.3 °F /  9.6 °C 46.2 °F /  7.9 °C 30.02 in /  1016.5 hPa South 6.9 mph /  11.1 km/h 3.5 mph /  5.6 km/h 89 % 0.00 in /  0 mm
05:44 49.2 °F /  9.6 °C 46.1 °F /  7.8 °C 30.02 in /  1016.5 hPa South 8.1 mph /  13 km/h 4.7 mph /  7.6 km/h 89 % 0.00 in /  0 mm
05:49 49.1 °F /  9.5 °C 46.0 °F /  7.8 °C 30.02 in /  1016.5 hPa South 5.8 mph /  9.3 km/h 3.0 mph /  4.8 km/h 89 % 0.00 in /  0 mm
05:54 49.1 °F /  9.5 °C 46.0 °F /  7.8 °C 30.02 in /  1016.5 hPa South 7.0 mph /  11.3 km/h 5.6 mph /  9 km/h 89 % 0.00 in /  0 mm
05:59 49.1 °F /  9.5 °C 46.0 °F /  7.8 °C 30.02 in /  1016.5 hPa North 4.6 mph /  7.4 km/h 2.5 mph /  4 km/h 89 % 0.00 in /  0 mm
06:04 49.1 °F /  9.5 °C 46.3 °F /  7.9 °C 30.02 in /  1016.5 hPa South 8.1 mph /  13 km/h 5.3 mph /  8.5 km/h 90 % 0.00 in /  0 mm
06:09 49.2 °F /  9.6 °C 46.4 °F /  8 °C 30.02 in /  1016.5 hPa South 6.9 mph /  11.1 km/h 5.7 mph /  9.2 km/h 90 % 0.00 in /  0 mm
06:14 49.4 °F /  9.7 °C 46.6 °F /  8.1 °C 30.02 in /  1016.5 hPa North 9.2 mph /  14.8 km/h 6.2 mph /  10 km/h 90 % 0.00 in /  0 mm
06:19 49.5 °F /  9.7 °C 46.7 °F /  8.2 °C 30.02 in /  1016.5 hPa South 8.1 mph /  13 km/h 5.0 mph /  8 km/h 90 % 0.00 in /  0 mm
06:24 49.5 °F /  9.7 °C 46.7 °F /  8.2 °C 30.02 in /  1016.5 hPa South 4.6 mph /  7.4 km/h 4.4 mph /  7.1 km/h 90 % 0.00 in /  0 mm
06:29 49.6 °F /  9.8 °C 46.8 °F /  8.2 °C 30.02 in /  1016.5 hPa South 6.9 mph /  11.1 km/h 5.4 mph /  8.7 km/h 90 % 0.00 in /  0 mm
06:34 49.6 °F /  9.8 °C 46.5 °F /  8.1 °C 30.02 in /  1016.5 hPa North 6.9 mph /  11.1 km/h 5.8 mph /  9.3 km/h 89 % 0.00 in /  0 mm
06:39 49.6 °F /  9.8 °C 46.5 °F /  8.1 °C 30.02 in /  1016.5 hPa North 8.1 mph /  13 km/h 5.5 mph /  8.9 km/h 89 % 0.00 in /  0 mm
06:44 49.6 °F /  9.8 °C 46.5 °F /  8.1 °C 30.03 in /  1016.8 hPa North 9.2 mph /  14.8 km/h 3.9 mph /  6.3 km/h 89 % 0.00 in /  0 mm
06:49 49.7 °F /  9.8 °C 46.6 °F /  8.1 °C 30.03 in /  1016.8 hPa South 10.4 mph /  16.7 km/h 5.2 mph /  8.4 km/h 89 % 0.00 in /  0 mm
06:54 49.8 °F /  9.9 °C 46.7 °F /  8.2 °C 30.03 in /  1016.8 hPa North 9.2 mph /  14.8 km/h 5.8 mph /  9.3 km/h 89 % 0.00 in /  0 mm
06:59 49.8 °F /  9.9 °C 46.7 °F /  8.2 °C 30.03 in /  1016.8 hPa South 5.8 mph /  9.3 km/h 3.9 mph /  6.3 km/h 89 % 0.00 in /  0 mm
07:04 49.7 °F /  9.8 °C 46.6 °F /  8.1 °C 30.03 in /  1016.8 hPa South 6.9 mph /  11.1 km/h 5.2 mph /  8.4 km/h 89 % 0.00 in /  0 mm
07:09 49.7 °F /  9.8 °C 46.6 °F /  8.1 °C 30.03 in /  1016.8 hPa South 9.2 mph /  14.8 km/h 5.2 mph /  8.4 km/h 89 % 0.00 in /  0 mm
07:14 49.8 °F /  9.9 °C 46.7 °F /  8.2 °C 30.03 in /  1016.8 hPa South 9.2 mph /  14.8 km/h 5.8 mph /  9.3 km/h 89 % 0.00 in /  0 mm
07:19 49.8 °F /  9.9 °C 46.7 °F /  8.2 °C 30.03 in /  1016.8 hPa South 8.1 mph /  13 km/h 6.2 mph /  10 km/h 89 % 0.00 in /  0 mm
07:24 49.9 °F /  9.9 °C 46.8 °F /  8.2 °C 30.04 in /  1017.2 hPa South 8.1 mph /  13 km/h 6.2 mph /  10 km/h 89 % 0.00 in /  0 mm
07:29 49.8 °F /  9.9 °C 46.7 °F /  8.2 °C 30.04 in /  1017.2 hPa South 7.0 mph /  11.3 km/h 6.3 mph /  10.1 km/h 89 % 0.00 in /  0 mm
07:34 49.9 °F /  9.9 °C 46.8 °F /  8.2 °C 30.04 in /  1017.2 hPa North 8.1 mph /  13 km/h 6.8 mph /  10.9 km/h 89 % 0.00 in /  0 mm
07:39 49.9 °F /  9.9 °C 46.8 °F /  8.2 °C 30.04 in /  1017.2 hPa South 6.9 mph /  11.1 km/h 4.8 mph /  7.7 km/h 89 % 0.00 in /  0 mm
07:44 50.0 °F /  10 °C 46.9 °F /  8.3 °C 30.04 in /  1017.2 hPa South 6.9 mph /  11.1 km/h 5.9 mph /  9.5 km/h 89 % 0.00 in /  0 mm
07:49 50.1 °F /  10.1 °C 46.7 °F /  8.2 °C 30.04 in /  1017.2 hPa South 7.0 mph /  11.3 km/h 3.9 mph /  6.3 km/h 88 % 0.00 in /  0 mm
07:54 50.4 °F /  10.2 °C 47.3 °F /  8.5 °C 30.04 in /  1017.2 hPa South 5.8 mph /  9.3 km/h 4.0 mph /  6.4 km/h 89 % 0.00 in /  0 mm
07:59 50.7 °F /  10.4 °C 47.3 °F /  8.5 °C 30.05 in /  1017.5 hPa South 6.9 mph /  11.1 km/h 3.2 mph /  5.1 km/h 88 % 0.00 in /  0 mm
08:04 51.1 °F /  10.6 °C 47.7 °F /  8.7 °C 30.05 in /  1017.5 hPa South 9.0 mph /  14.5 km/h 6.3 mph /  10.1 km/h 88 % 0.00 in /  0 mm
08:09 51.4 °F /  10.8 °C 48.0 °F /  8.9 °C 30.06 in /  1017.8 hPa South 9.2 mph /  14.8 km/h 5.8 mph /  9.3 km/h 88 % 0.00 in /  0 mm
08:14 51.6 °F /  10.9 °C 47.9 °F /  8.8 °C 30.06 in /  1017.8 hPa South 6.9 mph /  11.1 km/h 6.6 mph /  10.6 km/h 87 % 0.00 in /  0 mm
08:19 51.8 °F /  11 °C 48.1 °F /  8.9 °C 30.07 in /  1018.2 hPa South 10.4 mph /  16.7 km/h 5.9 mph /  9.5 km/h 87 % 0.00 in /  0 mm
08:24 51.9 °F /  11.1 °C 48.2 °F /  9 °C 30.07 in /  1018.2 hPa North 11.5 mph /  18.5 km/h 7.9 mph /  12.7 km/h 87 % 0.00 in /  0 mm
08:29 52.1 °F /  11.2 °C 48.3 °F /  9.1 °C 30.07 in /  1018.2 hPa South 8.1 mph /  13 km/h 7.1 mph /  11.4 km/h 87 % 0.00 in /  0 mm
08:34 52.3 °F /  11.3 °C 48.5 °F /  9.2 °C 30.07 in /  1018.2 hPa South 9.2 mph /  14.8 km/h 6.1 mph /  9.8 km/h 87 % 0.00 in /  0 mm
08:39 52.7 °F /  11.5 °C 48.9 °F /  9.4 °C 30.07 in /  1018.2 hPa South 12.7 mph /  20.4 km/h 8.9 mph /  14.3 km/h 87 % 0.00 in /  0 mm
08:44 53.1 °F /  11.7 °C 49.3 °F /  9.6 °C 30.07 in /  1018.2 hPa South 9.2 mph /  14.8 km/h 9.2 mph /  14.8 km/h 87 % 0.00 in /  0 mm
08:49 53.6 °F /  12 °C 49.8 °F /  9.9 °C 30.07 in /  1018.2 hPa SE 8.1 mph /  13 km/h 8.0 mph /  12.9 km/h 87 % 0.00 in /  0 mm
08:54 54.0 °F /  12.2 °C 49.9 °F /  9.9 °C 30.07 in /  1018.2 hPa SSE 12.7 mph /  20.4 km/h 6.2 mph /  10 km/h 86 % 0.00 in /  0 mm
08:59 54.3 °F /  12.4 °C 49.9 °F /  9.9 °C 30.08 in /  1018.5 hPa SSE 9.2 mph /  14.8 km/h 5.4 mph /  8.7 km/h 85 % 0.00 in /  0 mm
09:00 54.3 °F /  12.4 °C 49.9 °F /  9.9 °C 30.08 in /  1018.5 hPa SSE 6.0 mph /  9.7 km/h 15.0 mph /  24.1 km/h 85 % 0.00 in /  0 mm
20:09 65.2 °F /  18.4 °C 50.5 °F /  10.3 °C 30.07 in /  1018.2 hPa SE 11.5 mph /  18.5 km/h 8.1 mph /  13 km/h 59 % 0.00 in /  0 mm
20:14 64.8 °F /  18.2 °C 50.6 °F /  10.3 °C 30.07 in /  1018.2 hPa SE 13.0 mph /  20.9 km/h 9.6 mph /  15.4 km/h 60 % 0.00 in /  0 mm
20:19 64.5 °F /  18.1 °C 50.7 °F /  10.4 °C 30.07 in /  1018.2 hPa SE 12.7 mph /  20.4 km/h 7.4 mph /  11.9 km/h 61 % 0.00 in /  0 mm
20:24 64.2 °F /  17.9 °C 50.9 °F /  10.5 °C 30.08 in /  1018.5 hPa SE 11.5 mph /  18.5 km/h 6.7 mph /  10.8 km/h 62 % 0.00 in /  0 mm
20:29 63.8 °F /  17.7 °C 51.0 °F /  10.6 °C 30.08 in /  1018.5 hPa SE 12.7 mph /  20.4 km/h 5.4 mph /  8.7 km/h 63 % 0.00 in /  0 mm
20:34 63.5 °F /  17.5 °C 51.1 °F /  10.6 °C 30.08 in /  1018.5 hPa SE 15.0 mph /  24.1 km/h 8.9 mph /  14.3 km/h 64 % 0.00 in /  0 mm
20:39 63.2 °F /  17.3 °C 50.8 °F /  10.4 °C 30.08 in /  1018.5 hPa SE 15.0 mph /  24.1 km/h 4.4 mph /  7.1 km/h 64 % 0.00 in /  0 mm
20:44 62.9 °F /  17.2 °C 51.0 °F /  10.6 °C 30.08 in /  1018.5 hPa SE 12.7 mph /  20.4 km/h 9.8 mph /  15.8 km/h 65 % 0.00 in /  0 mm
20:49 62.6 °F /  17 °C 51.1 °F /  10.6 °C 30.08 in /  1018.5 hPa SE 10.4 mph /  16.7 km/h 6.0 mph /  9.7 km/h 66 % 0.00 in /  0 mm
20:52 62.6 °F /  17 °C 51.1 °F /  10.6 °C 30.08 in /  1018.5 hPa SE 5.8 mph /  9.3 km/h 6.0 mph /  9.7 km/h 66 % 0.00 in /  0 mm
Ararat Weather
Compliments of Weather Underground - 1.5 mb
Click here to send mail.


ABOUT

Live weather data from Ararat, Victoria, Australia, 3377
Data uploaded from Cumulus every 5 minutes to Weather Underground.
This site then downloads the raw data for formatting and display.
Metric and imperial data can be displayed. Graphs and historical data available.
Includes Sun and Moon times and rain image live from BOM.

Check out Ararat Weather on Facebook, Twitter and Google +

Help support ongoing costs by checking out the ads





Follow @AraratWeather